createdAt,value
2019-03-04T00:01:33.463Z,74.38
2019-03-04T00:04:00.052Z,74.26
2019-03-04T00:06:26.590Z,74.23
2019-03-04T00:08:53.263Z,74.23
2019-03-04T00:11:19.888Z,74.36
2019-03-04T00:13:47.053Z,74.33
2019-03-04T00:16:13.606Z,74.49
2019-03-04T00:18:40.287Z,74.57
2019-03-04T00:21:06.942Z,74.46
2019-03-04T00:23:33.842Z,74.37
2019-03-04T00:26:00.362Z,73.94
2019-03-04T00:28:26.954Z,73.93
2019-03-04T00:30:54.142Z,73.99
2019-03-04T00:33:20.806Z,73.94
2019-03-04T00:35:47.359Z,73.86
2019-03-04T00:38:13.980Z,73.77
2019-03-04T00:40:40.593Z,73.96
2019-03-04T00:43:07.145Z,74.09
2019-03-04T00:45:33.799Z,74.20
2019-03-04T00:48:00.717Z,74.19
2019-03-04T00:50:27.318Z,74.18
2019-03-04T00:52:53.873Z,74.09
2019-03-04T00:55:20.671Z,74.16
2019-03-04T00:57:47.276Z,73.79
2019-03-04T01:00:17.773Z,73.89
2019-03-04T01:02:45.498Z,73.63
2019-03-04T01:05:12.177Z,73.62
2019-03-04T01:07:39.993Z,73.58
2019-03-04T01:10:06.734Z,73.23
2019-03-04T01:12:33.417Z,72.44
2019-03-04T01:15:00.219Z,72.47
2019-03-04T01:17:26.819Z,71.90
2019-03-04T01:19:53.799Z,72.06
2019-03-04T01:22:21.695Z,71.27
2019-03-04T01:24:48.351Z,71.09
2019-03-04T01:27:15.005Z,71.21
2019-03-04T01:29:42.379Z,71.32
2019-03-04T01:32:08.956Z,71.36
2019-03-04T01:34:35.722Z,70.82
2019-03-04T01:37:02.502Z,71.07
2019-03-04T01:39:29.193Z,70.63
2019-03-04T01:41:55.742Z,70.48
2019-03-04T01:44:25.553Z,70.39
2019-03-04T01:46:52.246Z,70.12
2019-03-04T01:49:18.840Z,69.37
2019-03-04T01:51:45.701Z,69.55
2019-03-04T01:54:12.427Z,69.15
2019-03-04T01:56:39.403Z,68.99
2019-03-04T01:59:05.998Z,69.02
2019-03-04T02:01:32.618Z,69.09
2019-03-04T02:03:59.593Z,68.72
2019-03-04T02:06:26.441Z,68.01
2019-03-04T02:08:52.963Z,67.32
2019-03-04T02:11:19.581Z,67.04
2019-03-04T02:13:46.223Z,66.77
2019-03-04T02:16:13.091Z,66.78
2019-03-04T02:18:40.896Z,67.21
2019-03-04T02:21:08.012Z,67.05
2019-03-04T02:23:34.692Z,67.23
2019-03-04T02:26:09.870Z,66.55
2019-03-04T02:28:36.685Z,66.55
2019-03-04T02:31:03.796Z,66.33
2019-03-04T02:33:30.573Z,66.33
2019-03-04T02:35:57.186Z,66.18
2019-03-04T02:38:23.912Z,66.24
2019-03-04T02:40:50.490Z,65.94
2019-03-04T02:43:17.569Z,66.08
2019-03-04T02:45:44.184Z,65.82
2019-03-04T02:48:10.722Z,65.38
2019-03-04T02:50:37.248Z,65.23
2019-03-04T02:53:03.764Z,64.90
2019-03-04T02:55:30.393Z,64.93
2019-03-04T02:57:56.919Z,65.62
2019-03-04T03:00:23.702Z,66.36
2019-03-04T03:02:50.564Z,66.35
2019-03-04T03:05:17.313Z,65.98
2019-03-04T03:07:44.012Z,66.03
2019-03-04T03:10:10.854Z,66.27
2019-03-04T03:12:37.998Z,66.27
2019-03-04T03:15:05.062Z,66.82
2019-03-04T03:17:31.666Z,67.10
2019-03-04T03:19:58.159Z,67.16
2019-03-04T03:22:25.815Z,67.09
2019-03-04T03:24:52.375Z,67.52
2019-03-04T03:27:18.980Z,67.02
2019-03-04T03:29:46.119Z,66.78
2019-03-04T03:32:12.928Z,66.44
2019-03-04T03:34:39.621Z,66.68
2019-03-04T03:37:06.131Z,66.77
2019-03-04T03:39:33.252Z,67.12
2019-03-04T03:41:59.869Z,67.06
2019-03-04T03:44:26.404Z,66.22
2019-03-04T03:46:52.968Z,65.98
2019-03-04T03:49:19.719Z,64.90
2019-03-04T03:51:46.674Z,64.85
2019-03-04T03:54:13.502Z,64.39
2019-03-04T03:56:40.014Z,64.38
2019-03-04T03:59:06.754Z,64.41
2019-03-04T04:01:33.634Z,64.34
2019-03-04T04:04:00.237Z,63.68
2019-03-04T04:06:27.108Z,63.74
2019-03-04T04:08:53.855Z,63.87
2019-03-04T04:11:20.828Z,63.73
2019-03-04T04:13:47.488Z,63.73
2019-03-04T04:16:14.080Z,63.11
2019-03-04T04:18:40.751Z,62.59
2019-03-04T04:21:07.285Z,62.66
2019-03-04T04:23:34.163Z,62.46
2019-03-04T04:26:01.157Z,62.51
2019-03-04T04:28:29.609Z,62.49
2019-03-04T04:30:56.139Z,62.73
2019-03-04T04:33:23.840Z,62.93
2019-03-04T04:35:53.451Z,63.11
2019-03-04T04:38:20.027Z,63.39
2019-03-04T04:40:46.952Z,63.43
2019-03-04T04:43:13.713Z,63.82
2019-03-04T04:45:43.253Z,64.23
2019-03-04T04:48:11.967Z,64.44
2019-03-04T04:50:38.484Z,64.73
2019-03-04T04:53:05.053Z,64.64
2019-03-04T04:55:31.962Z,65.05
2019-03-04T04:57:58.586Z,65.01
2019-03-04T05:00:25.137Z,64.78
2019-03-04T05:02:51.898Z,64.12
2019-03-04T05:05:19.032Z,64.16
2019-03-04T05:07:45.938Z,64.18
2019-03-04T05:10:14.539Z,63.95
2019-03-04T05:12:41.599Z,63.94
2019-03-04T05:15:09.274Z,63.69
2019-03-04T05:17:35.923Z,63.61
2019-03-04T05:20:03.164Z,62.76
2019-03-04T05:22:29.770Z,62.71
2019-03-04T05:24:56.444Z,62.66
2019-03-04T05:27:23.194Z,63.05
2019-03-04T05:29:51.411Z,63.09
2019-03-04T05:32:18.391Z,62.82
2019-03-04T05:34:45.018Z,63.05
2019-03-04T05:37:11.746Z,62.58
2019-03-04T05:39:38.496Z,62.12
2019-03-04T05:42:05.357Z,61.57
2019-03-04T05:44:32.045Z,61.51
2019-03-04T05:46:58.549Z,60.83
2019-03-04T05:49:25.274Z,61.03
2019-03-04T05:51:52.034Z,60.70
2019-03-04T05:54:18.683Z,60.92
2019-03-04T05:56:46.631Z,61.66
2019-03-04T05:59:19.736Z,63.41
2019-03-04T06:01:49.595Z,65.06
2019-03-04T06:04:16.254Z,65.40
2019-03-04T06:06:48.931Z,65.84
2019-03-04T06:09:15.826Z,65.41
2019-03-04T06:11:42.539Z,66.14
2019-03-04T06:14:09.400Z,66.13
2019-03-04T06:16:46.808Z,66.33
2019-03-04T06:19:06.568Z,66.33
2019-03-04T06:21:33.657Z,66.58
2019-03-04T06:24:01.566Z,66.21
2019-03-04T06:26:28.355Z,66.69
2019-03-04T06:28:55.995Z,66.86
2019-03-04T06:31:22.725Z,66.39
2019-03-04T06:33:49.488Z,66.02
2019-03-04T06:36:16.315Z,65.54
2019-03-04T06:38:43.261Z,65.46
2019-03-04T06:41:10.210Z,64.45
2019-03-04T06:43:37.077Z,63.66
2019-03-04T06:46:03.768Z,63.38
2019-03-04T06:48:34.498Z,62.59
2019-03-04T06:51:05.466Z,61.74
2019-03-04T06:54:02.828Z,60.80
2019-03-04T06:56:36.473Z,59.78
2019-03-04T06:59:25.598Z,59.28
2019-03-04T07:01:55.544Z,59.41
2019-03-04T07:04:30.689Z,59.64
2019-03-04T07:06:57.706Z,60.16
2019-03-04T07:09:24.695Z,60.07
2019-03-04T07:11:52.172Z,59.73
2019-03-04T07:14:19.261Z,59.88
2019-03-04T07:16:48.842Z,60.28
2019-03-04T07:19:19.890Z,60.24
2019-03-04T07:21:48.128Z,60.39
2019-03-04T07:24:14.902Z,60.25
2019-03-04T07:26:41.489Z,60.43
2019-03-04T07:29:08.161Z,60.17
2019-03-04T07:31:35.002Z,59.29
2019-03-04T07:34:01.955Z,58.97
2019-03-04T07:36:28.751Z,58.53
2019-03-04T07:38:57.087Z,58.48
2019-03-04T07:41:24.539Z,58.90
2019-03-04T07:43:51.378Z,58.71
2019-03-04T07:46:18.303Z,58.71
2019-03-04T07:48:45.035Z,58.69
2019-03-04T07:51:12.796Z,57.08
2019-03-04T07:53:46.389Z,56.36
2019-03-04T07:56:09.171Z,54.65
2019-03-04T07:58:38.271Z,53.66
2019-03-04T08:01:05.023Z,52.66
2019-03-04T08:03:32.041Z,52.28
2019-03-04T08:05:59.281Z,53.01
2019-03-04T08:08:25.943Z,53.47
2019-03-04T08:11:46.698Z,53.53
2019-03-04T08:14:13.378Z,53.51
2019-03-04T08:16:40.455Z,54.28
2019-03-04T08:19:07.153Z,54.37
2019-03-04T08:21:33.771Z,54.69
2019-03-04T08:24:01.397Z,54.60
2019-03-04T08:26:28.231Z,54.66
2019-03-04T08:28:54.858Z,54.64
2019-03-04T08:31:23.951Z,55.30
2019-03-04T08:33:53.459Z,55.97
2019-03-04T08:36:20.043Z,55.41
2019-03-04T08:38:47.932Z,53.95
2019-03-04T08:41:14.500Z,52.41
2019-03-04T08:43:41.476Z,52.49
2019-03-04T08:46:08.740Z,51.76
2019-03-04T08:48:35.517Z,51.23
2019-03-04T08:51:02.522Z,51.31
2019-03-04T08:53:31.069Z,51.09
2019-03-04T08:55:57.808Z,51.92
2019-03-04T08:58:24.850Z,51.55
2019-03-04T09:00:51.760Z,50.07
2019-03-04T09:03:18.959Z,49.95
2019-03-04T09:05:45.692Z,49.53
2019-03-04T09:08:14.277Z,48.93
2019-03-04T09:10:41.287Z,49.80
2019-03-04T09:13:08.107Z,49.49
2019-03-04T09:15:34.824Z,49.85
2019-03-04T09:18:01.358Z,49.24
2019-03-04T09:20:28.344Z,48.55
2019-03-04T09:22:55.143Z,48.53
2019-03-04T09:25:30.932Z,47.64
2019-03-04T09:27:57.973Z,47.64
2019-03-04T09:30:29.137Z,47.26
2019-03-04T09:32:56.133Z,46.43
2019-03-04T09:35:23.006Z,44.50
2019-03-04T09:37:50.063Z,44.98
2019-03-04T09:40:16.795Z,44.06
2019-03-04T09:42:43.885Z,43.62
2019-03-04T09:45:11.821Z,44.91
2019-03-04T09:47:38.818Z,45.30
2019-03-04T09:50:07.999Z,44.37
2019-03-04T09:52:34.812Z,43.49
2019-03-04T09:55:01.978Z,42.70
2019-03-04T09:57:29.058Z,42.15
2019-03-04T09:59:56.215Z,42.26
2019-03-04T10:02:29.632Z,42.36
2019-03-04T10:05:16.752Z,43.39
2019-03-04T10:08:32.964Z,42.24
2019-03-04T10:11:27.285Z,43.04
2019-03-04T10:14:03.791Z,42.45
2019-03-04T10:17:14.468Z,41.64
2019-03-04T10:20:20.275Z,42.37
2019-03-04T10:23:03.066Z,43.57
2019-03-04T10:25:52.221Z,43.55
2019-03-04T10:29:11.821Z,43.80
2019-03-04T10:32:10.501Z,44.32
2019-03-04T10:35:12.936Z,44.88
2019-03-04T10:38:22.298Z,45.15
2019-03-04T10:41:21.404Z,50.96
2019-03-04T10:44:13.786Z,66.69
2019-03-04T10:47:00.270Z,73.25
2019-03-04T10:49:31.281Z,76.15
2019-03-04T10:51:58.153Z,77.51
2019-03-04T10:54:24.761Z,76.77
2019-03-04T10:56:51.679Z,77.37
2019-03-04T10:59:18.380Z,77.52
2019-03-04T11:01:45.219Z,77.51
2019-03-04T11:04:11.921Z,77.60
2019-03-04T11:06:38.771Z,72.02
2019-03-04T11:09:06.802Z,68.76
2019-03-04T11:11:33.923Z,66.64
2019-03-04T11:14:00.525Z,63.81
2019-03-04T11:16:27.647Z,63.17
2019-03-04T11:18:54.551Z,62.51
2019-03-04T11:21:21.291Z,59.65
2019-03-04T11:23:49.052Z,60.27
2019-03-04T11:26:15.788Z,57.16
2019-03-04T11:28:42.776Z,56.32
2019-03-04T11:31:09.511Z,54.45
2019-03-04T11:33:36.039Z,53.23
2019-03-04T11:36:05.539Z,51.18
2019-03-04T11:38:40.560Z,51.45
2019-03-04T11:41:11.723Z,50.75
2019-03-04T11:43:38.392Z,49.73
2019-03-04T11:46:05.158Z,49.72
2019-03-04T11:48:32.125Z,49.32
2019-03-04T11:50:58.786Z,48.98
2019-03-04T11:53:25.569Z,47.83
2019-03-04T11:55:53.517Z,48.13
2019-03-04T11:58:21.411Z,46.70
2019-03-04T12:00:56.652Z,46.88
2019-03-04T12:03:23.758Z,46.15
2019-03-04T12:05:50.419Z,45.61
2019-03-04T12:08:17.177Z,45.38
2019-03-04T12:10:43.829Z,45.22
2019-03-04T12:13:10.553Z,45.47
2019-03-04T12:15:37.268Z,45.75
2019-03-04T12:18:03.886Z,45.83
2019-03-04T12:20:30.460Z,45.80
2019-03-04T12:22:57.213Z,45.05
2019-03-04T12:25:24.199Z,44.96
2019-03-04T12:27:51.217Z,44.82
2019-03-04T12:30:18.041Z,44.21
2019-03-04T12:32:45.530Z,43.18
2019-03-04T12:35:12.894Z,43.43
2019-03-04T12:37:42.713Z,43.48
2019-03-04T12:40:10.637Z,44.05
2019-03-04T12:42:37.496Z,44.95
2019-03-04T12:45:04.554Z,44.56
2019-03-04T12:47:31.197Z,45.18
2019-03-04T12:49:57.918Z,44.63
2019-03-04T12:52:24.663Z,44.15
2019-03-04T12:55:01.808Z,43.78
2019-03-04T12:57:28.624Z,43.58
2019-03-04T12:59:56.767Z,43.13
2019-03-04T13:02:32.728Z,43.25
2019-03-04T13:05:01.550Z,43.92
2019-03-04T13:07:29.059Z,45.22
2019-03-04T13:09:58.171Z,45.98
2019-03-04T13:12:24.978Z,46.94
2019-03-04T13:14:52.384Z,47.70
2019-03-04T13:17:20.209Z,48.29
2019-03-04T13:20:03.089Z,48.14
2019-03-04T13:22:31.372Z,46.16
2019-03-04T13:25:11.890Z,46.04
2019-03-04T13:27:32.074Z,46.54
2019-03-04T13:29:59.048Z,47.10
2019-03-04T13:32:25.971Z,48.03
2019-03-04T13:34:52.562Z,48.69
2019-03-04T13:37:19.472Z,48.68
2019-03-04T13:39:46.191Z,47.35
2019-03-04T13:42:14.154Z,46.48
2019-03-04T13:44:40.911Z,47.51
2019-03-04T13:47:08.379Z,47.39
2019-03-04T13:49:35.432Z,48.43
2019-03-04T13:52:02.225Z,49.24
2019-03-04T13:54:29.002Z,49.38
2019-03-04T13:56:57.460Z,49.66
2019-03-04T13:59:24.238Z,50.37
2019-03-04T14:01:51.000Z,50.18
2019-03-04T14:04:17.782Z,50.60
2019-03-04T14:06:45.163Z,51.19
2019-03-04T14:09:14.345Z,51.14
2019-03-04T14:11:41.188Z,51.50
2019-03-04T14:14:11.833Z,51.35
2019-03-04T14:16:42.690Z,50.96
2019-03-04T14:19:14.546Z,51.80
2019-03-04T14:21:47.795Z,51.67
2019-03-04T14:24:18.568Z,52.24
2019-03-04T14:26:50.093Z,51.61
2019-03-04T14:29:20.816Z,52.13
2019-03-04T14:31:47.889Z,51.21
2019-03-04T14:34:14.850Z,51.12
2019-03-04T14:36:42.493Z,51.29
2019-03-04T14:39:13.759Z,51.68
2019-03-04T14:41:41.710Z,51.96
2019-03-04T14:44:08.579Z,52.92
2019-03-04T14:46:35.361Z,56.23
2019-03-04T14:49:02.224Z,58.90
2019-03-04T14:51:28.992Z,66.13
2019-03-04T14:53:55.987Z,69.33
2019-03-04T14:56:22.891Z,70.86
2019-03-04T14:58:49.773Z,70.58
2019-03-04T15:01:16.616Z,71.58
2019-03-04T15:03:43.342Z,72.53
2019-03-04T15:06:11.561Z,72.29
2019-03-04T15:08:41.581Z,72.82
2019-03-04T15:11:08.620Z,73.03
2019-03-04T15:13:41.233Z,72.49
2019-03-04T15:16:09.141Z,73.08
2019-03-04T15:18:35.878Z,72.60
2019-03-04T15:21:03.755Z,73.76
2019-03-04T15:23:30.417Z,72.84
2019-03-04T15:25:57.164Z,75.23
2019-03-04T15:28:24.132Z,75.32
2019-03-04T15:30:53.256Z,75.80
2019-03-04T15:33:20.892Z,73.91
2019-03-04T15:35:47.585Z,74.37
2019-03-04T15:38:14.346Z,74.15
2019-03-04T15:40:41.192Z,72.80
2019-03-04T15:43:08.151Z,70.67
2019-03-04T15:45:35.119Z,70.12
2019-03-04T15:48:01.658Z,69.64
2019-03-04T15:50:28.368Z,69.57
2019-03-04T15:52:55.696Z,69.02
2019-03-04T15:55:22.603Z,69.05
2019-03-04T15:57:51.074Z,68.99
2019-03-04T16:00:18.407Z,69.06
2019-03-04T16:02:45.263Z,68.96
2019-03-04T16:05:12.052Z,69.11
2019-03-04T16:07:38.889Z,69.63
2019-03-04T16:10:07.687Z,71.36
2019-03-04T16:12:36.366Z,77.93
2019-03-04T16:15:04.304Z,85.01
2019-03-04T16:17:31.514Z,87.21
2019-03-04T16:19:58.600Z,87.37
2019-03-04T16:22:27.636Z,87.57
2019-03-04T16:24:54.219Z,88.46
2019-03-04T16:27:20.864Z,88.67
2019-03-04T16:29:47.793Z,89.01
2019-03-04T16:32:14.754Z,87.08
2019-03-04T16:34:41.998Z,85.89
2019-03-04T16:37:08.718Z,85.36
2019-03-04T16:39:35.557Z,85.87
2019-03-04T16:42:03.585Z,85.74
2019-03-04T16:44:31.276Z,86.47
2019-03-04T16:46:57.945Z,86.18
2019-03-04T16:49:24.667Z,86.78
2019-03-04T16:51:53.887Z,86.86
2019-03-04T16:54:20.976Z,87.24
2019-03-04T16:56:47.704Z,86.47
2019-03-04T16:59:15.652Z,86.72
2019-03-04T17:01:43.029Z,86.60
2019-03-04T17:04:09.579Z,86.52
2019-03-04T17:06:39.072Z,86.22
2019-03-04T17:09:14.298Z,85.06
2019-03-04T17:11:41.065Z,85.05
2019-03-04T17:14:07.591Z,85.06
2019-03-04T17:16:34.204Z,84.74
2019-03-04T17:19:00.883Z,84.85
2019-03-04T17:21:28.027Z,84.78
2019-03-04T17:23:55.195Z,84.16
2019-03-04T17:26:21.783Z,84.40
2019-03-04T17:28:48.348Z,84.36
2019-03-04T17:31:15.177Z,83.19
2019-03-04T17:33:42.877Z,82.83
2019-03-04T17:36:09.445Z,82.69
2019-03-04T17:38:36.091Z,83.08
2019-03-04T17:41:02.639Z,82.38
2019-03-04T17:43:29.474Z,82.09
2019-03-04T17:45:56.351Z,82.42
2019-03-04T17:48:22.939Z,82.37
2019-03-04T17:50:49.485Z,82.18
2019-03-04T17:53:16.132Z,81.44
2019-03-04T17:55:42.715Z,81.16
2019-03-04T17:58:09.281Z,80.32
2019-03-04T18:00:37.412Z,79.95
2019-03-04T18:03:05.397Z,79.87
2019-03-04T18:05:32.030Z,79.10
2019-03-04T18:07:58.561Z,78.78
2019-03-04T18:10:25.149Z,78.44
2019-03-04T18:12:53.265Z,78.33
2019-03-04T18:15:20.389Z,78.60
2019-03-04T18:17:47.176Z,78.45
2019-03-04T18:20:14.803Z,78.41
2019-03-04T18:22:41.599Z,78.06
2019-03-04T18:25:12.479Z,78.34
2019-03-04T18:27:47.041Z,78.90
2019-03-04T18:30:29.895Z,77.79
2019-03-04T18:33:34.233Z,78.03
2019-03-04T18:36:18.448Z,77.98
2019-03-04T18:39:19.212Z,78.43
2019-03-04T18:42:09.301Z,78.42
2019-03-04T18:45:08.817Z,78.29
2019-03-04T18:48:15.982Z,78.45
2019-03-04T18:50:42.764Z,78.76
2019-03-04T18:53:09.577Z,78.99
2019-03-04T18:55:37.626Z,78.59
2019-03-04T18:58:04.309Z,78.71
2019-03-04T19:00:31.945Z,79.01
2019-03-04T19:02:58.674Z,78.39
2019-03-04T19:05:25.670Z,77.56
2019-03-04T19:07:52.333Z,77.57
2019-03-04T19:10:19.121Z,77.08
2019-03-04T19:12:46.144Z,76.66
2019-03-04T19:15:12.858Z,76.15
2019-03-04T19:17:43.671Z,76.66
2019-03-04T19:20:11.425Z,76.50
2019-03-04T19:22:38.424Z,76.43
2019-03-04T19:25:05.706Z,75.88
2019-03-04T19:27:32.697Z,76.14
2019-03-04T19:29:59.607Z,75.87
2019-03-04T19:32:26.378Z,75.99
2019-03-04T19:34:53.066Z,75.18
2019-03-04T19:37:19.875Z,75.54
2019-03-04T19:39:46.758Z,75.80
2019-03-04T19:42:14.811Z,75.44
2019-03-04T19:44:41.981Z,75.58
2019-03-04T19:47:08.832Z,76.16
2019-03-04T19:49:35.652Z,76.41
2019-03-04T19:52:03.648Z,76.55
2019-03-04T19:54:30.583Z,76.74
2019-03-04T19:56:57.378Z,76.50
2019-03-04T19:59:24.814Z,76.91
2019-03-04T20:01:54.045Z,76.81
2019-03-04T20:04:20.945Z,77.06
2019-03-04T20:06:48.157Z,76.90
2019-03-04T20:09:14.970Z,76.43
2019-03-04T20:11:41.991Z,75.98
2019-03-04T20:14:09.138Z,75.62
2019-03-04T20:16:36.039Z,75.48
2019-03-04T20:19:03.230Z,75.43
2019-03-04T20:21:29.953Z,75.53
2019-03-04T20:23:57.013Z,74.96
2019-03-04T20:26:24.030Z,75.21
2019-03-04T20:28:51.065Z,74.76
2019-03-04T20:31:18.914Z,74.65
2019-03-04T20:33:47.335Z,74.38
2019-03-04T20:36:30.844Z,74.40
2019-03-04T20:39:18.365Z,73.93
2019-03-04T20:41:49.313Z,73.49
2019-03-04T20:44:21.004Z,73.53
2019-03-04T20:46:57.161Z,73.09
2019-03-04T20:49:26.103Z,72.81
2019-03-04T20:52:03.531Z,72.72
2019-03-04T20:54:32.820Z,72.66
2019-03-04T20:57:07.947Z,73.06
2019-03-04T20:59:38.540Z,72.85
2019-03-04T21:02:18.740Z,72.23
2019-03-04T21:05:00.457Z,72.18
2019-03-04T21:07:28.022Z,71.89
2019-03-04T21:09:54.985Z,71.90
2019-03-04T21:12:23.860Z,71.36
2019-03-04T21:15:18.925Z,71.42
2019-03-04T21:17:51.814Z,71.39
2019-03-04T21:20:19.960Z,71.47
2019-03-04T21:22:46.990Z,71.21
2019-03-04T21:25:33.196Z,71.13
2019-03-04T21:28:10.360Z,71.07
2019-03-04T21:31:13.473Z,71.46
2019-03-04T21:34:11.272Z,71.44
2019-03-04T21:37:11.661Z,71.43
2019-03-04T21:39:45.391Z,71.64
2019-03-04T21:42:22.004Z,71.80
2019-03-04T21:45:36.738Z,72.02
2019-03-04T21:48:11.213Z,71.88
2019-03-04T21:50:47.113Z,71.58
2019-03-04T21:53:18.058Z,71.41
2019-03-04T21:56:15.783Z,71.43
2019-03-04T21:58:43.976Z,71.85
2019-03-04T22:01:23.706Z,72.25
2019-03-04T22:03:50.642Z,72.63
2019-03-04T22:06:17.775Z,72.60
2019-03-04T22:08:44.385Z,72.87
2019-03-04T22:11:11.078Z,72.70
2019-03-04T22:13:37.728Z,72.64
2019-03-04T22:16:04.525Z,72.61
2019-03-04T22:18:32.036Z,72.70
2019-03-04T22:20:58.855Z,73.08
2019-03-04T22:23:26.242Z,72.80
2019-03-04T22:26:01.904Z,72.82
2019-03-04T22:28:23.766Z,72.71
2019-03-04T22:30:53.271Z,72.64
2019-03-04T22:33:20.415Z,72.45
2019-03-04T22:35:47.068Z,72.72
2019-03-04T22:38:13.866Z,72.88
2019-03-04T22:40:40.698Z,72.86
2019-03-04T22:43:07.332Z,73.04
2019-03-04T22:45:33.994Z,72.82
2019-03-04T22:48:00.624Z,72.83
2019-03-04T22:50:30.165Z,72.78
2019-03-04T22:52:56.845Z,72.61
2019-03-04T22:55:28.609Z,72.17
2019-03-04T22:57:55.415Z,72.23
2019-03-04T23:01:29.004Z,72.01
2019-03-04T23:04:20.087Z,71.95
2019-03-04T23:06:51.425Z,71.66
2019-03-04T23:09:18.596Z,71.89
2019-03-04T23:11:50.331Z,72.11
2019-03-04T23:14:21.834Z,72.38
2019-03-04T23:16:49.378Z,72.37
2019-03-04T23:19:15.957Z,72.21
2019-03-04T23:21:42.568Z,72.29
2019-03-04T23:24:09.242Z,72.59
2019-03-04T23:26:36.014Z,72.47
2019-03-04T23:29:02.785Z,72.41
2019-03-04T23:31:29.865Z,72.19
2019-03-04T23:33:56.669Z,72.30
2019-03-04T23:36:23.359Z,72.00
2019-03-04T23:38:49.921Z,71.93
2019-03-04T23:41:21.290Z,72.25
2019-03-04T23:46:28.860Z,72.34
2019-03-04T23:48:55.455Z,72.27
2019-03-04T23:51:22.004Z,72.42
2019-03-04T23:53:49.585Z,72.28
2019-03-04T23:56:16.554Z,72.37
2019-03-04T23:58:43.198Z,72.27
